sensor_id;sensor_type;location;lat;lon;timestamp;P1;durP1;ratioP1;P2;durP2;ratioP2
20101;SDS011;10210;52.284;9.892;2022-07-29T00:00:43;5.60;;;1.43;;
20101;SDS011;10210;52.284;9.892;2022-07-29T00:03:12;3.00;;;1.20;;
20101;SDS011;10210;52.284;9.892;2022-07-29T00:05:38;3.83;;;1.23;;
20101;SDS011;10210;52.284;9.892;2022-07-29T00:08:06;6.20;;;1.80;;
20101;SDS011;10210;52.284;9.892;2022-07-29T00:10:32;6.13;;;1.40;;
20101;SDS011;10210;52.284;9.892;2022-07-29T00:12:58;7.73;;;1.67;;
20101;SDS011;10210;52.284;9.892;2022-07-29T00:15:24;5.23;;;1.40;;
20101;SDS011;10210;52.284;9.892;2022-07-29T00:17:50;4.17;;;1.40;;
20101;SDS011;10210;52.284;9.892;2022-07-29T00:20:16;5.23;;;1.70;;
20101;SDS011;10210;52.284;9.892;2022-07-29T00:22:42;8.80;;;1.90;;
20101;SDS011;10210;52.284;9.892;2022-07-29T00:25:08;4.07;;;1.30;;
20101;SDS011;10210;52.284;9.892;2022-07-29T00:27:35;4.90;;;1.70;;
20101;SDS011;10210;52.284;9.892;2022-07-29T00:30:01;3.57;;;1.40;;
20101;SDS011;10210;52.284;9.892;2022-07-29T00:32:29;7.63;;;1.83;;
20101;SDS011;10210;52.284;9.892;2022-07-29T00:34:55;5.83;;;1.53;;
20101;SDS011;10210;52.284;9.892;2022-07-29T00:37:39;5.50;;;1.57;;
20101;SDS011;10210;52.284;9.892;2022-07-29T00:40:05;5.77;;;1.50;;
20101;SDS011;10210;52.284;9.892;2022-07-29T00:42:41;6.17;;;1.60;;
20101;SDS011;10210;52.284;9.892;2022-07-29T00:45:14;7.00;;;1.53;;
20101;SDS011;10210;52.284;9.892;2022-07-29T00:47:41;6.33;;;1.90;;
20101;SDS011;10210;52.284;9.892;2022-07-29T00:50:08;6.27;;;1.57;;
20101;SDS011;10210;52.284;9.892;2022-07-29T00:52:38;5.87;;;1.63;;
20101;SDS011;10210;52.284;9.892;2022-07-29T00:55:08;6.60;;;1.70;;
20101;SDS011;10210;52.284;9.892;2022-07-29T00:57:40;4.90;;;1.40;;
20101;SDS011;10210;52.284;9.892;2022-07-29T01:00:09;5.00;;;1.60;;
20101;SDS011;10210;52.284;9.892;2022-07-29T01:02:42;5.43;;;1.50;;
20101;SDS011;10210;52.284;9.892;2022-07-29T01:05:09;4.03;;;1.30;;
20101;SDS011;10210;52.284;9.892;2022-07-29T01:07:37;4.17;;;1.40;;
20101;SDS011;10210;52.284;9.892;2022-07-29T01:10:04;4.70;;;1.57;;
20101;SDS011;10210;52.284;9.892;2022-07-29T01:12:33;6.63;;;1.40;;
20101;SDS011;10210;52.284;9.892;2022-07-29T01:15:03;7.70;;;1.60;;
20101;SDS011;10210;52.284;9.892;2022-07-29T01:17:43;4.03;;;1.37;;
20101;SDS011;10210;52.284;9.892;2022-07-29T01:26:41;5.67;;;1.63;;
20101;SDS011;10210;52.284;9.892;2022-07-29T01:31:58;6.87;;;1.97;;
20101;SDS011;10210;52.284;9.892;2022-07-29T01:34:52;5.37;;;1.50;;
20101;SDS011;10210;52.284;9.892;2022-07-29T01:37:38;4.87;;;1.50;;
20101;SDS011;10210;52.284;9.892;2022-07-29T01:43:31;7.80;;;1.80;;
20101;SDS011;10210;52.284;9.892;2022-07-29T01:46:07;5.23;;;1.70;;
20101;SDS011;10210;52.284;9.892;2022-07-29T01:48:44;7.77;;;2.07;;
20101;SDS011;10210;52.284;9.892;2022-07-29T01:51:19;6.27;;;1.77;;
20101;SDS011;10210;52.284;9.892;2022-07-29T01:56:42;5.63;;;1.50;;
20101;SDS011;10210;52.284;9.892;2022-07-29T01:59:12;7.50;;;1.77;;
20101;SDS011;10210;52.284;9.892;2022-07-29T02:01:39;6.93;;;1.70;;
20101;SDS011;10210;52.284;9.892;2022-07-29T02:04:08;6.30;;;1.67;;
20101;SDS011;10210;52.284;9.892;2022-07-29T02:06:37;3.77;;;1.60;;
20101;SDS011;10210;52.284;9.892;2022-07-29T02:09:06;4.13;;;1.57;;
20101;SDS011;10210;52.284;9.892;2022-07-29T02:11:35;5.03;;;1.70;;
20101;SDS011;10210;52.284;9.892;2022-07-29T02:14:02;6.33;;;1.40;;
20101;SDS011;10210;52.284;9.892;2022-07-29T02:16:32;4.63;;;1.50;;
20101;SDS011;10210;52.284;9.892;2022-07-29T02:19:01;7.50;;;1.80;;
20101;SDS011;10210;52.284;9.892;2022-07-29T02:21:30;5.20;;;1.60;;
20101;SDS011;10210;52.284;9.892;2022-07-29T02:24:00;6.17;;;1.60;;
20101;SDS011;10210;52.284;9.892;2022-07-29T02:26:29;4.33;;;1.60;;
20101;SDS011;10210;52.284;9.892;2022-07-29T02:28:57;5.23;;;1.70;;
20101;SDS011;10210;52.284;9.892;2022-07-29T02:31:26;5.13;;;1.50;;
20101;SDS011;10210;52.284;9.892;2022-07-29T02:33:59;3.53;;;1.40;;
20101;SDS011;10210;52.284;9.892;2022-07-29T02:36:30;6.50;;;1.63;;
20101;SDS011;10210;52.284;9.892;2022-07-29T02:38:58;5.00;;;1.40;;
20101;SDS011;10210;52.284;9.892;2022-07-29T02:41:44;4.17;;;1.63;;
20101;SDS011;10210;52.284;9.892;2022-07-29T02:44:14;5.97;;;1.70;;
20101;SDS011;10210;52.284;9.892;2022-07-29T02:46:48;5.17;;;1.50;;
20101;SDS011;10210;52.284;9.892;2022-07-29T02:49:29;4.03;;;1.60;;
20101;SDS011;10210;52.284;9.892;2022-07-29T02:52:12;4.63;;;1.43;;
20101;SDS011;10210;52.284;9.892;2022-07-29T02:54:58;5.47;;;1.37;;
20101;SDS011;10210;52.284;9.892;2022-07-29T02:57:41;2.97;;;1.50;;
20101;SDS011;10210;52.284;9.892;2022-07-29T03:00:12;4.70;;;1.50;;
20101;SDS011;10210;52.284;9.892;2022-07-29T03:02:42;7.97;;;1.77;;
20101;SDS011;10210;52.284;9.892;2022-07-29T03:05:18;4.50;;;1.47;;
20101;SDS011;10210;52.284;9.892;2022-07-29T03:07:47;3.30;;;1.40;;
20101;SDS011;10210;52.284;9.892;2022-07-29T03:10:17;4.53;;;1.60;;
20101;SDS011;10210;52.284;9.892;2022-07-29T03:12:43;3.70;;;1.30;;
20101;SDS011;10210;52.284;9.892;2022-07-29T03:15:10;4.53;;;1.60;;
20101;SDS011;10210;52.284;9.892;2022-07-29T03:17:37;3.73;;;1.50;;
20101;SDS011;10210;52.284;9.892;2022-07-29T03:20:04;4.07;;;1.37;;
20101;SDS011;10210;52.284;9.892;2022-07-29T03:22:38;3.57;;;1.73;;
20101;SDS011;10210;52.284;9.892;2022-07-29T03:25:09;4.77;;;1.73;;
20101;SDS011;10210;52.284;9.892;2022-07-29T03:27:36;6.27;;;1.83;;
20101;SDS011;10210;52.284;9.892;2022-07-29T03:30:02;5.00;;;1.70;;
20101;SDS011;10210;52.284;9.892;2022-07-29T03:32:29;7.20;;;1.90;;
20101;SDS011;10210;52.284;9.892;2022-07-29T03:34:55;5.10;;;1.70;;
20101;SDS011;10210;52.284;9.892;2022-07-29T03:37:22;6.30;;;1.67;;
20101;SDS011;10210;52.284;9.892;2022-07-29T03:39:47;4.77;;;1.50;;
20101;SDS011;10210;52.284;9.892;2022-07-29T03:42:17;4.07;;;1.50;;
20101;SDS011;10210;52.284;9.892;2022-07-29T03:44:48;5.50;;;1.70;;
20101;SDS011;10210;52.284;9.892;2022-07-29T03:47:17;4.77;;;1.50;;
20101;SDS011;10210;52.284;9.892;2022-07-29T03:49:50;4.10;;;1.63;;
20101;SDS011;10210;52.284;9.892;2022-07-29T03:52:21;6.27;;;2.03;;
20101;SDS011;10210;52.284;9.892;2022-07-29T03:54:47;7.40;;;2.20;;
20101;SDS011;10210;52.284;9.892;2022-07-29T03:57:13;6.73;;;1.50;;
20101;SDS011;10210;52.284;9.892;2022-07-29T03:59:42;5.30;;;1.50;;
20101;SDS011;10210;52.284;9.892;2022-07-29T04:02:10;4.10;;;1.57;;
20101;SDS011;10210;52.284;9.892;2022-07-29T04:04:37;5.27;;;1.70;;
20101;SDS011;10210;52.284;9.892;2022-07-29T04:07:03;6.33;;;1.50;;
20101;SDS011;10210;52.284;9.892;2022-07-29T04:09:29;6.73;;;1.80;;
20101;SDS011;10210;52.284;9.892;2022-07-29T04:11:56;5.97;;;1.80;;
20101;SDS011;10210;52.284;9.892;2022-07-29T04:14:22;4.90;;;1.80;;
20101;SDS011;10210;52.284;9.892;2022-07-29T04:16:48;9.47;;;2.50;;
20101;SDS011;10210;52.284;9.892;2022-07-29T04:19:13;5.77;;;1.90;;
20101;SDS011;10210;52.284;9.892;2022-07-29T04:21:40;6.27;;;1.70;;
20101;SDS011;10210;52.284;9.892;2022-07-29T04:24:07;3.67;;;1.63;;
20101;SDS011;10210;52.284;9.892;2022-07-29T04:26:33;4.13;;;1.83;;
20101;SDS011;10210;52.284;9.892;2022-07-29T04:29:00;5.97;;;1.70;;
20101;SDS011;10210;52.284;9.892;2022-07-29T04:31:26;8.03;;;2.07;;
20101;SDS011;10210;52.284;9.892;2022-07-29T04:33:51;6.83;;;1.70;;
20101;SDS011;10210;52.284;9.892;2022-07-29T04:36:17;5.27;;;1.73;;
20101;SDS011;10210;52.284;9.892;2022-07-29T04:38:43;5.13;;;1.60;;
20101;SDS011;10210;52.284;9.892;2022-07-29T04:41:08;6.87;;;1.70;;
20101;SDS011;10210;52.284;9.892;2022-07-29T04:43:34;7.17;;;1.90;;
20101;SDS011;10210;52.284;9.892;2022-07-29T04:46:01;6.03;;;1.80;;
20101;SDS011;10210;52.284;9.892;2022-07-29T04:48:28;6.17;;;2.00;;
20101;SDS011;10210;52.284;9.892;2022-07-29T04:50:54;5.67;;;1.90;;
20101;SDS011;10210;52.284;9.892;2022-07-29T04:53:22;5.50;;;1.73;;
20101;SDS011;10210;52.284;9.892;2022-07-29T04:55:48;6.97;;;1.87;;
20101;SDS011;10210;52.284;9.892;2022-07-29T04:58:13;5.67;;;1.83;;
20101;SDS011;10210;52.284;9.892;2022-07-29T05:00:39;5.63;;;1.80;;
20101;SDS011;10210;52.284;9.892;2022-07-29T05:03:05;9.03;;;2.00;;
20101;SDS011;10210;52.284;9.892;2022-07-29T05:05:31;6.87;;;2.20;;
20101;SDS011;10210;52.284;9.892;2022-07-29T05:07:56;6.30;;;1.83;;
20101;SDS011;10210;52.284;9.892;2022-07-29T05:10:22;7.93;;;1.87;;
20101;SDS011;10210;52.284;9.892;2022-07-29T05:12:48;6.03;;;1.93;;
20101;SDS011;10210;52.284;9.892;2022-07-29T05:15:14;4.90;;;2.00;;
20101;SDS011;10210;52.284;9.892;2022-07-29T05:17:39;5.40;;;1.90;;
20101;SDS011;10210;52.284;9.892;2022-07-29T05:20:05;8.53;;;1.90;;
20101;SDS011;10210;52.284;9.892;2022-07-29T05:22:32;7.83;;;1.97;;
20101;SDS011;10210;52.284;9.892;2022-07-29T05:24:57;7.77;;;2.10;;
20101;SDS011;10210;52.284;9.892;2022-07-29T05:27:29;4.47;;;2.10;;
20101;SDS011;10210;52.284;9.892;2022-07-29T05:29:55;7.33;;;2.10;;
20101;SDS011;10210;52.284;9.892;2022-07-29T05:32:21;7.20;;;2.00;;
20101;SDS011;10210;52.284;9.892;2022-07-29T05:34:47;8.43;;;2.00;;
20101;SDS011;10210;52.284;9.892;2022-07-29T05:37:13;7.10;;;1.87;;
20101;SDS011;10210;52.284;9.892;2022-07-29T05:39:39;7.00;;;1.90;;
20101;SDS011;10210;52.284;9.892;2022-07-29T05:42:11;8.13;;;2.00;;
20101;SDS011;10210;52.284;9.892;2022-07-29T05:44:38;6.17;;;1.87;;
20101;SDS011;10210;52.284;9.892;2022-07-29T05:47:04;7.23;;;2.00;;
20101;SDS011;10210;52.284;9.892;2022-07-29T05:49:31;9.23;;;1.83;;
20101;SDS011;10210;52.284;9.892;2022-07-29T05:51:58;5.77;;;1.90;;
20101;SDS011;10210;52.284;9.892;2022-07-29T05:54:26;9.60;;;2.10;;
20101;SDS011;10210;52.284;9.892;2022-07-29T05:56:52;8.67;;;2.07;;
20101;SDS011;10210;52.284;9.892;2022-07-29T05:59:18;5.70;;;2.10;;
20101;SDS011;10210;52.284;9.892;2022-07-29T06:01:43;6.83;;;2.03;;
20101;SDS011;10210;52.284;9.892;2022-07-29T06:04:09;8.03;;;2.17;;
20101;SDS011;10210;52.284;9.892;2022-07-29T06:06:34;9.10;;;2.13;;
20101;SDS011;10210;52.284;9.892;2022-07-29T06:09:03;7.90;;;2.53;;
20101;SDS011;10210;52.284;9.892;2022-07-29T06:11:29;7.33;;;2.27;;
20101;SDS011;10210;52.284;9.892;2022-07-29T06:13:54;6.17;;;2.10;;
20101;SDS011;10210;52.284;9.892;2022-07-29T06:16:20;7.13;;;2.33;;
20101;SDS011;10210;52.284;9.892;2022-07-29T06:18:46;6.63;;;2.10;;
20101;SDS011;10210;52.284;9.892;2022-07-29T06:21:11;6.37;;;1.90;;
20101;SDS011;10210;52.284;9.892;2022-07-29T06:23:40;6.97;;;2.07;;
20101;SDS011;10210;52.284;9.892;2022-07-29T06:26:06;9.97;;;2.30;;
20101;SDS011;10210;52.284;9.892;2022-07-29T06:28:32;9.63;;;2.23;;
20101;SDS011;10210;52.284;9.892;2022-07-29T06:30:58;7.90;;;2.50;;
20101;SDS011;10210;52.284;9.892;2022-07-29T06:33:24;8.33;;;2.30;;
20101;SDS011;10210;52.284;9.892;2022-07-29T06:35:50;8.30;;;2.30;;
20101;SDS011;10210;52.284;9.892;2022-07-29T06:38:15;9.67;;;2.40;;
20101;SDS011;10210;52.284;9.892;2022-07-29T06:40:44;6.57;;;2.07;;
20101;SDS011;10210;52.284;9.892;2022-07-29T06:43:31;8.77;;;2.03;;
20101;SDS011;10210;52.284;9.892;2022-07-29T06:46:03;8.47;;;2.20;;
20101;SDS011;10210;52.284;9.892;2022-07-29T06:48:31;6.23;;;2.10;;
20101;SDS011;10210;52.284;9.892;2022-07-29T06:50:59;7.37;;;2.33;;
20101;SDS011;10210;52.284;9.892;2022-07-29T06:53:25;9.53;;;2.37;;
20101;SDS011;10210;52.284;9.892;2022-07-29T06:55:52;8.30;;;2.60;;
20101;SDS011;10210;52.284;9.892;2022-07-29T06:58:18;7.67;;;2.17;;
20101;SDS011;10210;52.284;9.892;2022-07-29T07:00:45;5.67;;;2.00;;
20101;SDS011;10210;52.284;9.892;2022-07-29T07:03:12;8.23;;;2.40;;
20101;SDS011;10210;52.284;9.892;2022-07-29T07:05:39;4.70;;;2.00;;
20101;SDS011;10210;52.284;9.892;2022-07-29T07:08:05;6.77;;;2.13;;
20101;SDS011;10210;52.284;9.892;2022-07-29T07:10:32;7.47;;;2.23;;
20101;SDS011;10210;52.284;9.892;2022-07-29T07:12:58;7.97;;;2.27;;
20101;SDS011;10210;52.284;9.892;2022-07-29T07:15:25;10.90;;;2.60;;
20101;SDS011;10210;52.284;9.892;2022-07-29T07:17:52;10.33;;;2.80;;
20101;SDS011;10210;52.284;9.892;2022-07-29T07:20:17;9.13;;;2.30;;
20101;SDS011;10210;52.284;9.892;2022-07-29T07:22:44;6.97;;;2.40;;
20101;SDS011;10210;52.284;9.892;2022-07-29T07:25:10;7.77;;;2.50;;
20101;SDS011;10210;52.284;9.892;2022-07-29T07:27:36;8.73;;;2.40;;
20101;SDS011;10210;52.284;9.892;2022-07-29T07:30:10;4.77;;;1.97;;
20101;SDS011;10210;52.284;9.892;2022-07-29T07:32:36;6.53;;;2.37;;
20101;SDS011;10210;52.284;9.892;2022-07-29T07:35:03;9.97;;;2.30;;
20101;SDS011;10210;52.284;9.892;2022-07-29T07:37:31;7.10;;;2.27;;
20101;SDS011;10210;52.284;9.892;2022-07-29T07:39:57;8.43;;;2.57;;
20101;SDS011;10210;52.284;9.892;2022-07-29T07:42:23;9.57;;;2.27;;
20101;SDS011;10210;52.284;9.892;2022-07-29T07:44:49;9.13;;;2.30;;
20101;SDS011;10210;52.284;9.892;2022-07-29T07:47:16;10.17;;;2.77;;
20101;SDS011;10210;52.284;9.892;2022-07-29T07:49:45;8.77;;;2.43;;
20101;SDS011;10210;52.284;9.892;2022-07-29T07:52:12;11.10;;;2.60;;
20101;SDS011;10210;52.284;9.892;2022-07-29T07:54:39;9.33;;;2.40;;
20101;SDS011;10210;52.284;9.892;2022-07-29T07:57:05;10.00;;;2.73;;
20101;SDS011;10210;52.284;9.892;2022-07-29T07:59:31;9.47;;;3.10;;
20101;SDS011;10210;52.284;9.892;2022-07-29T08:01:57;9.17;;;2.60;;
20101;SDS011;10210;52.284;9.892;2022-07-29T08:04:22;9.10;;;2.73;;
20101;SDS011;10210;52.284;9.892;2022-07-29T08:06:49;8.63;;;2.80;;
20101;SDS011;10210;52.284;9.892;2022-07-29T08:09:15;7.80;;;2.20;;
20101;SDS011;10210;52.284;9.892;2022-07-29T08:11:41;8.80;;;2.57;;
20101;SDS011;10210;52.284;9.892;2022-07-29T08:14:07;7.17;;;2.20;;
20101;SDS011;10210;52.284;9.892;2022-07-29T08:16:32;7.87;;;2.30;;
20101;SDS011;10210;52.284;9.892;2022-07-29T08:18:58;8.80;;;2.50;;
20101;SDS011;10210;52.284;9.892;2022-07-29T08:21:24;11.87;;;2.70;;
20101;SDS011;10210;52.284;9.892;2022-07-29T08:23:50;7.83;;;2.50;;
20101;SDS011;10210;52.284;9.892;2022-07-29T08:26:40;8.30;;;2.60;;
20101;SDS011;10210;52.284;9.892;2022-07-29T08:29:07;10.47;;;2.50;;
20101;SDS011;10210;52.284;9.892;2022-07-29T08:31:33;9.53;;;2.80;;
20101;SDS011;10210;52.284;9.892;2022-07-29T08:33:58;8.77;;;2.63;;
20101;SDS011;10210;52.284;9.892;2022-07-29T08:36:25;8.60;;;2.70;;
20101;SDS011;10210;52.284;9.892;2022-07-29T08:38:51;6.83;;;2.30;;
20101;SDS011;10210;52.284;9.892;2022-07-29T08:41:18;10.83;;;2.97;;
20101;SDS011;10210;52.284;9.892;2022-07-29T08:43:44;9.80;;;2.53;;
20101;SDS011;10210;52.284;9.892;2022-07-29T08:46:12;6.97;;;2.30;;
20101;SDS011;10210;52.284;9.892;2022-07-29T08:48:37;7.70;;;2.60;;
20101;SDS011;10210;52.284;9.892;2022-07-29T08:51:06;7.60;;;2.40;;
20101;SDS011;10210;52.284;9.892;2022-07-29T08:53:33;8.03;;;2.30;;
20101;SDS011;10210;52.284;9.892;2022-07-29T08:55:59;7.83;;;2.43;;
20101;SDS011;10210;52.284;9.892;2022-07-29T08:58:26;10.10;;;2.53;;
20101;SDS011;10210;52.284;9.892;2022-07-29T09:00:57;7.87;;;2.57;;
20101;SDS011;10210;52.284;9.892;2022-07-29T09:03:31;10.17;;;2.30;;
20101;SDS011;10210;52.284;9.892;2022-07-29T09:06:01;8.27;;;2.60;;
20101;SDS011;10210;52.284;9.892;2022-07-29T09:08:29;10.10;;;2.63;;
20101;SDS011;10210;52.284;9.892;2022-07-29T09:10:57;6.40;;;2.50;;
20101;SDS011;10210;52.284;9.892;2022-07-29T09:13:25;7.43;;;2.47;;
20101;SDS011;10210;52.284;9.892;2022-07-29T09:15:51;9.07;;;2.70;;
20101;SDS011;10210;52.284;9.892;2022-07-29T09:21:05;8.30;;;2.30;;
20101;SDS011;10210;52.284;9.892;2022-07-29T09:26:36;11.13;;;2.80;;
20101;SDS011;10210;52.284;9.892;2022-07-29T09:29:15;7.83;;;2.37;;
20101;SDS011;10210;52.284;9.892;2022-07-29T09:31:45;7.00;;;2.50;;
20101;SDS011;10210;52.284;9.892;2022-07-29T09:34:21;9.03;;;2.60;;
20101;SDS011;10210;52.284;9.892;2022-07-29T09:36:53;7.17;;;2.60;;
20101;SDS011;10210;52.284;9.892;2022-07-29T09:39:27;9.20;;;2.40;;
20101;SDS011;10210;52.284;9.892;2022-07-29T09:42:03;8.30;;;2.50;;
20101;SDS011;10210;52.284;9.892;2022-07-29T09:44:43;10.20;;;2.90;;
20101;SDS011;10210;52.284;9.892;2022-07-29T09:47:15;9.00;;;2.40;;
20101;SDS011;10210;52.284;9.892;2022-07-29T09:49:56;9.33;;;2.70;;
20101;SDS011;10210;52.284;9.892;2022-07-29T09:52:24;7.80;;;2.60;;
20101;SDS011;10210;52.284;9.892;2022-07-29T09:55:04;8.07;;;2.57;;
20101;SDS011;10210;52.284;9.892;2022-07-29T09:57:35;8.33;;;2.40;;
20101;SDS011;10210;52.284;9.892;2022-07-29T10:00:03;11.13;;;2.77;;
20101;SDS011;10210;52.284;9.892;2022-07-29T10:02:33;9.53;;;2.70;;
20101;SDS011;10210;52.284;9.892;2022-07-29T10:05:03;9.17;;;2.60;;
20101;SDS011;10210;52.284;9.892;2022-07-29T10:07:54;7.10;;;2.33;;
20101;SDS011;10210;52.284;9.892;2022-07-29T10:10:27;11.10;;;2.50;;
20101;SDS011;10210;52.284;9.892;2022-07-29T10:12:56;9.27;;;3.03;;
20101;SDS011;10210;52.284;9.892;2022-07-29T10:15:24;7.37;;;2.47;;
20101;SDS011;10210;52.284;9.892;2022-07-29T10:17:59;13.60;;;2.70;;
20101;SDS011;10210;52.284;9.892;2022-07-29T10:20:26;11.67;;;2.73;;
20101;SDS011;10210;52.284;9.892;2022-07-29T10:22:53;9.80;;;2.57;;
20101;SDS011;10210;52.284;9.892;2022-07-29T10:25:20;11.53;;;2.90;;
20101;SDS011;10210;52.284;9.892;2022-07-29T10:27:48;9.50;;;2.57;;
20101;SDS011;10210;52.284;9.892;2022-07-29T10:30:17;8.27;;;2.77;;
20101;SDS011;10210;52.284;9.892;2022-07-29T10:32:55;8.00;;;2.60;;
20101;SDS011;10210;52.284;9.892;2022-07-29T10:39:11;8.13;;;2.50;;
20101;SDS011;10210;52.284;9.892;2022-07-29T10:42:17;7.87;;;2.40;;
20101;SDS011;10210;52.284;9.892;2022-07-29T10:44:50;11.47;;;2.70;;
20101;SDS011;10210;52.284;9.892;2022-07-29T10:47:21;12.17;;;2.77;;
20101;SDS011;10210;52.284;9.892;2022-07-29T10:49:55;9.13;;;2.70;;
20101;SDS011;10210;52.284;9.892;2022-07-29T10:52:51;10.00;;;2.30;;
20101;SDS011;10210;52.284;9.892;2022-07-29T10:55:34;10.00;;;2.73;;
20101;SDS011;10210;52.284;9.892;2022-07-29T10:58:12;8.50;;;2.60;;
20101;SDS011;10210;52.284;9.892;2022-07-29T11:00:51;8.07;;;2.23;;
20101;SDS011;10210;52.284;9.892;2022-07-29T11:06:13;8.67;;;2.50;;
20101;SDS011;10210;52.284;9.892;2022-07-29T11:08:39;7.93;;;2.50;;
20101;SDS011;10210;52.284;9.892;2022-07-29T11:13:44;8.47;;;3.13;;
20101;SDS011;10210;52.284;9.892;2022-07-29T11:16:16;7.63;;;2.30;;
20101;SDS011;10210;52.284;9.892;2022-07-29T11:21:38;8.87;;;2.77;;
20101;SDS011;10210;52.284;9.892;2022-07-29T11:24:13;7.50;;;2.37;;
20101;SDS011;10210;52.284;9.892;2022-07-29T11:29:55;10.23;;;2.50;;
20101;SDS011;10210;52.284;9.892;2022-07-29T11:32:28;7.73;;;2.37;;
20101;SDS011;10210;52.284;9.892;2022-07-29T11:35:21;7.70;;;2.50;;
20101;SDS011;10210;52.284;9.892;2022-07-29T11:43:50;9.23;;;2.60;;
20101;SDS011;10210;52.284;9.892;2022-07-29T11:47:04;9.37;;;2.40;;
20101;SDS011;10210;52.284;9.892;2022-07-29T11:49:22;9.17;;;2.50;;
20101;SDS011;10210;52.284;9.892;2022-07-29T11:51:54;13.53;;;2.60;;
20101;SDS011;10210;52.284;9.892;2022-07-29T11:54:26;7.87;;;2.33;;
20101;SDS011;10210;52.284;9.892;2022-07-29T11:56:58;7.83;;;2.53;;
20101;SDS011;10210;52.284;9.892;2022-07-29T11:59:24;7.90;;;2.57;;
20101;SDS011;10210;52.284;9.892;2022-07-29T12:01:58;8.67;;;3.10;;
20101;SDS011;10210;52.284;9.892;2022-07-29T12:04:25;6.47;;;2.30;;
20101;SDS011;10210;52.284;9.892;2022-07-29T12:06:55;12.27;;;2.50;;
20101;SDS011;10210;52.284;9.892;2022-07-29T12:09:22;8.47;;;2.53;;
20101;SDS011;10210;52.284;9.892;2022-07-29T12:11:48;9.80;;;2.73;;
20101;SDS011;10210;52.284;9.892;2022-07-29T12:14:32;7.90;;;2.53;;
20101;SDS011;10210;52.284;9.892;2022-07-29T12:16:59;8.30;;;2.50;;
20101;SDS011;10210;52.284;9.892;2022-07-29T12:19:25;7.40;;;2.13;;
20101;SDS011;10210;52.284;9.892;2022-07-29T12:21:52;8.53;;;2.40;;
20101;SDS011;10210;52.284;9.892;2022-07-29T12:24:20;8.30;;;2.30;;
20101;SDS011;10210;52.284;9.892;2022-07-29T12:26:50;8.33;;;2.47;;
20101;SDS011;10210;52.284;9.892;2022-07-29T12:29:20;10.97;;;2.63;;
20101;SDS011;10210;52.284;9.892;2022-07-29T12:31:46;7.63;;;2.50;;
20101;SDS011;10210;52.284;9.892;2022-07-29T12:34:18;11.60;;;2.93;;
20101;SDS011;10210;52.284;9.892;2022-07-29T12:36:49;8.80;;;2.80;;
20101;SDS011;10210;52.284;9.892;2022-07-29T12:39:15;11.63;;;2.90;;
20101;SDS011;10210;52.284;9.892;2022-07-29T12:41:42;7.67;;;2.43;;
20101;SDS011;10210;52.284;9.892;2022-07-29T12:44:08;9.67;;;2.87;;
20101;SDS011;10210;52.284;9.892;2022-07-29T12:46:40;9.43;;;2.70;;
20101;SDS011;10210;52.284;9.892;2022-07-29T12:49:06;8.63;;;2.60;;
20101;SDS011;10210;52.284;9.892;2022-07-29T12:51:33;11.27;;;2.83;;
20101;SDS011;10210;52.284;9.892;2022-07-29T12:56:38;9.13;;;3.07;;
20101;SDS011;10210;52.284;9.892;2022-07-29T12:59:13;8.80;;;2.50;;
20101;SDS011;10210;52.284;9.892;2022-07-29T13:01:51;6.63;;;2.45;;
20101;SDS011;10210;52.284;9.892;2022-07-29T13:04:27;10.80;;;2.73;;
20101;SDS011;10210;52.284;9.892;2022-07-29T13:06:59;7.82;;;2.60;;
20101;SDS011;10210;52.284;9.892;2022-07-29T13:09:36;9.45;;;2.33;;
20101;SDS011;10210;52.284;9.892;2022-07-29T13:12:08;8.38;;;2.83;;
20101;SDS011;10210;52.284;9.892;2022-07-29T13:14:43;11.83;;;2.77;;
20101;SDS011;10210;52.284;9.892;2022-07-29T13:17:18;6.70;;;2.53;;
20101;SDS011;10210;52.284;9.892;2022-07-29T13:20:06;12.77;;;2.83;;
20101;SDS011;10210;52.284;9.892;2022-07-29T13:22:37;8.60;;;2.83;;
20101;SDS011;10210;52.284;9.892;2022-07-29T13:25:03;9.17;;;2.73;;
20101;SDS011;10210;52.284;9.892;2022-07-29T13:27:33;8.70;;;2.80;;
20101;SDS011;10210;52.284;9.892;2022-07-29T13:30:05;10.02;;;3.15;;
20101;SDS011;10210;52.284;9.892;2022-07-29T13:32:34;10.07;;;3.10;;
20101;SDS011;10210;52.284;9.892;2022-07-29T13:35:02;8.93;;;3.08;;
20101;SDS011;10210;52.284;9.892;2022-07-29T13:37:35;9.13;;;3.10;;
20101;SDS011;10210;52.284;9.892;2022-07-29T13:40:03;12.23;;;3.13;;
20101;SDS011;10210;52.284;9.892;2022-07-29T13:42:33;6.53;;;2.78;;
20101;SDS011;10210;52.284;9.892;2022-07-29T13:44:59;9.98;;;3.03;;
20101;SDS011;10210;52.284;9.892;2022-07-29T13:47:26;8.30;;;2.63;;
20101;SDS011;10210;52.284;9.892;2022-07-29T13:49:55;9.25;;;2.67;;
20101;SDS011;10210;52.284;9.892;2022-07-29T13:52:22;7.77;;;2.90;;
20101;SDS011;10210;52.284;9.892;2022-07-29T13:54:48;9.77;;;2.88;;
20101;SDS011;10210;52.284;9.892;2022-07-29T13:57:14;8.73;;;2.60;;
20101;SDS011;10210;52.284;9.892;2022-07-29T13:59:41;10.80;;;2.70;;
20101;SDS011;10210;52.284;9.892;2022-07-29T14:02:08;7.07;;;2.30;;
20101;SDS011;10210;52.284;9.892;2022-07-29T14:04:37;7.20;;;2.78;;
20101;SDS011;10210;52.284;9.892;2022-07-29T14:07:03;11.23;;;3.20;;
20101;SDS011;10210;52.284;9.892;2022-07-29T14:09:29;10.95;;;2.55;;
20101;SDS011;10210;52.284;9.892;2022-07-29T14:11:56;11.48;;;3.00;;
20101;SDS011;10210;52.284;9.892;2022-07-29T14:14:22;9.50;;;2.95;;
20101;SDS011;10210;52.284;9.892;2022-07-29T14:16:48;11.00;;;3.10;;
20101;SDS011;10210;52.284;9.892;2022-07-29T14:19:13;8.77;;;2.85;;
20101;SDS011;10210;52.284;9.892;2022-07-29T14:21:39;10.50;;;2.92;;
20101;SDS011;10210;52.284;9.892;2022-07-29T14:24:05;7.22;;;2.53;;
20101;SDS011;10210;52.284;9.892;2022-07-29T14:26:31;9.82;;;2.90;;
20101;SDS011;10210;52.284;9.892;2022-07-29T14:28:57;10.95;;;2.90;;
20101;SDS011;10210;52.284;9.892;2022-07-29T14:31:25;10.35;;;2.92;;
20101;SDS011;10210;52.284;9.892;2022-07-29T14:33:53;9.60;;;2.92;;
20101;SDS011;10210;52.284;9.892;2022-07-29T14:36:19;9.57;;;3.20;;
20101;SDS011;10210;52.284;9.892;2022-07-29T14:38:45;9.52;;;2.50;;
20101;SDS011;10210;52.284;9.892;2022-07-29T14:41:10;10.63;;;3.17;;
20101;SDS011;10210;52.284;9.892;2022-07-29T14:43:36;11.27;;;3.20;;
20101;SDS011;10210;52.284;9.892;2022-07-29T14:46:02;10.30;;;3.03;;
20101;SDS011;10210;52.284;9.892;2022-07-29T14:48:28;8.23;;;2.47;;
20101;SDS011;10210;52.284;9.892;2022-07-29T14:50:54;10.23;;;3.08;;
20101;SDS011;10210;52.284;9.892;2022-07-29T14:53:21;12.23;;;3.20;;
20101;SDS011;10210;52.284;9.892;2022-07-29T14:55:47;10.00;;;3.10;;
20101;SDS011;10210;52.284;9.892;2022-07-29T14:58:14;7.70;;;3.00;;
20101;SDS011;10210;52.284;9.892;2022-07-29T15:00:40;9.40;;;3.05;;
20101;SDS011;10210;52.284;9.892;2022-07-29T15:03:05;14.02;;;3.10;;
20101;SDS011;10210;52.284;9.892;2022-07-29T15:05:34;6.65;;;2.70;;
20101;SDS011;10210;52.284;9.892;2022-07-29T15:08:00;9.00;;;2.92;;
20101;SDS011;10210;52.284;9.892;2022-07-29T15:10:25;8.27;;;2.90;;
20101;SDS011;10210;52.284;9.892;2022-07-29T15:12:52;9.15;;;3.10;;
20101;SDS011;10210;52.284;9.892;2022-07-29T15:15:18;10.90;;;3.00;;
20101;SDS011;10210;52.284;9.892;2022-07-29T15:17:44;10.70;;;3.35;;
20101;SDS011;10210;52.284;9.892;2022-07-29T15:20:10;10.63;;;3.05;;
20101;SDS011;10210;52.284;9.892;2022-07-29T15:22:36;12.00;;;3.10;;
20101;SDS011;10210;52.284;9.892;2022-07-29T15:25:03;9.65;;;3.45;;
20101;SDS011;10210;52.284;9.892;2022-07-29T15:27:30;11.85;;;3.10;;
20101;SDS011;10210;52.284;9.892;2022-07-29T15:29:56;9.37;;;2.93;;
20101;SDS011;10210;52.284;9.892;2022-07-29T15:32:22;9.13;;;3.00;;
20101;SDS011;10210;52.284;9.892;2022-07-29T15:34:48;8.53;;;2.90;;
20101;SDS011;10210;52.284;9.892;2022-07-29T15:37:14;9.85;;;3.13;;
20101;SDS011;10210;52.284;9.892;2022-07-29T15:39:39;8.03;;;3.10;;
20101;SDS011;10210;52.284;9.892;2022-07-29T15:42:05;8.50;;;2.70;;